Terminal Aerodrome Forecast
Issued by NWS Binghamton, NY

Current Version | Previous Version | Text Only | Print | Product List | Glossary On
Versions: 1 2 3 4 5 6 7 8 9 10 11 12 13 14 15 16
000
FTUS41 KBGM 280500
TAFSYR
TAF
KSYR 280526Z 2806/2906 29005KT P6SM SCT150
     FM280900 30004KT P6SM OVC025
     FM281400 32010KT P6SM BKN040
     FM281800 34010KT P6SM SCT050
     FM290000 VRB03KT P6SM SKC=

USA.gov is the U.S. government's official web portal to all federal, state and local government web resources and services.